Time;durP1;ratioP1;P1;durP2;ratioP2;P2;SDS_P1;SDS_P2;PMS_P1;PMS_P2;Temp;Humidity;BMP_temperature;BMP_pressure;BME280_temperature;BME280_humidity;BME280_pressure;Samples;Min_cycle;Max_cycle;Signal;HPM_P1;HPM_P2
2021/03/23 00:00:51;;;;;;;5.03;2.03;;;6.70;91.20;;;;;;5075468;28;20059;-86
2021/03/23 00:03:23;;;;;;;5.25;2.30;;;6.70;90.80;;;;;;5070023;28;20080;-84
2021/03/23 00:05:49;;;;;;;4.60;2.10;;;6.70;90.90;;;;;;5055407;28;20049;-84
2021/03/23 00:08:23;;;;;;;5.38;2.10;;;6.70;90.90;;;;;;5055051;28;20465;-84
2021/03/23 00:10:49;;;;;;;4.65;2.20;;;6.70;90.90;;;;;;5061786;28;20147;-84
2021/03/23 00:13:15;;;;;;;5.47;2.67;;;6.70;90.90;;;;;;5074677;28;20155;-85
2021/03/23 00:15:44;;;;;;;7.25;2.20;;;6.70;90.80;;;;;;5075463;28;20040;-84
2021/03/23 00:18:17;;;;;;;5.78;2.17;;;6.70;90.60;;;;;;5073994;28;20055;-84
2021/03/23 00:20:43;;;;;;;4.82;2.05;;;6.70;90.60;;;;;;5075184;28;20076;-84
2021/03/23 00:23:12;;;;;;;5.78;2.20;;;6.70;90.50;;;;;;5074444;28;20392;-84
2021/03/23 00:25:38;;;;;;;4.47;2.22;;;6.60;90.50;;;;;;5073401;28;20114;-85
2021/03/23 00:28:05;;;;;;;4.72;2.30;;;6.60;90.50;;;;;;5058019;28;20045;-84
2021/03/23 00:30:31;;;;;;;6.63;2.38;;;6.60;90.50;;;;;;5054954;28;20069;-84
2021/03/23 00:32:57;;;;;;;5.40;2.10;;;6.60;90.60;;;;;;5053893;28;20126;-84
2021/03/23 00:35:24;;;;;;;4.53;2.13;;;6.60;90.50;;;;;;5054705;28;20056;-85
2021/03/23 00:37:55;;;;;;;4.85;2.10;;;6.60;90.50;;;;;;5054617;28;20361;-84
2021/03/23 00:40:25;;;;;;;5.78;2.00;;;6.60;90.70;;;;;;5056923;28;20059;-85
2021/03/23 00:42:51;;;;;;;4.40;2.25;;;6.60;90.60;;;;;;5074672;28;20047;-84
2021/03/23 00:45:17;;;;;;;4.03;2.00;;;6.60;90.50;;;;;;5074776;28;20052;-84
2021/03/23 00:47:43;;;;;;;5.65;2.53;;;6.60;90.50;;;;;;5073505;28;20498;-84
2021/03/23 00:50:10;;;;;;;4.22;2.00;;;6.60;90.70;;;;;;5074399;28;20562;-84
2021/03/23 00:52:36;;;;;;;5.47;2.33;;;6.60;90.70;;;;;;5074085;28;20135;-84
2021/03/23 00:55:04;;;;;;;4.47;2.42;;;6.60;90.50;;;;;;5073913;28;20536;-84
2021/03/23 00:57:35;;;;;;;4.95;1.88;;;6.60;90.60;;;;;;5074581;28;20060;-84
2021/03/23 01:00:06;;;;;;;7.03;2.25;;;6.60;90.60;;;;;;5073348;28;20059;-84
2021/03/23 01:02:32;;;;;;;4.22;2.30;;;6.60;90.50;;;;;;5073459;28;20102;-84
2021/03/23 01:05:24;;;;;;;5.22;2.17;;;6.60;90.50;;;;;;5054405;28;20053;-84
2021/03/23 01:07:51;;;;;;;4.90;2.15;;;6.60;90.50;;;;;;5047406;28;20074;-82
2021/03/23 01:10:21;;;;;;;5.80;2.00;;;6.50;90.70;;;;;;5056250;28;20061;-81
2021/03/23 01:12:48;;;;;;;4.80;2.00;;;6.60;90.80;;;;;;5073827;28;20127;-82
2021/03/23 01:15:16;;;;;;;4.53;2.20;;;6.60;90.70;;;;;;5073160;28;20051;-82
2021/03/23 01:17:43;;;;;;;4.53;2.10;;;6.60;90.80;;;;;;5073978;28;20060;-83
2021/03/23 01:20:12;;;;;;;4.28;2.00;;;6.60;90.80;;;;;;5073699;28;20071;-82
2021/03/23 01:22:40;;;;;;;6.18;2.00;;;6.60;90.90;;;;;;5073159;28;20068;-82
2021/03/23 01:25:07;;;;;;;3.97;1.92;;;6.60;90.90;;;;;;5073666;28;20048;-82
2021/03/23 01:27:33;;;;;;;4.75;2.00;;;6.50;90.90;;;;;;5073939;28;20048;-82
2021/03/23 01:29:59;;;;;;;4.15;1.95;;;6.60;90.90;;;;;;5072675;28;20052;-81
2021/03/23 01:32:24;;;;;;;6.22;2.13;;;6.60;90.90;;;;;;5073685;28;20473;-82
2021/03/23 01:34:51;;;;;;;5.78;2.20;;;6.60;91.00;;;;;;5072967;28;20102;-81
2021/03/23 01:37:18;;;;;;;3.60;1.90;;;6.50;91.00;;;;;;5073356;28;20529;-82
2021/03/23 01:39:44;;;;;;;4.15;2.15;;;6.60;90.90;;;;;;5073279;28;20408;-82
2021/03/23 01:42:12;;;;;;;4.43;2.10;;;6.50;91.00;;;;;;5035599;28;20826;-82
2021/03/23 01:44:45;;;;;;;6.78;2.30;;;6.50;91.00;;;;;;5035463;28;20045;-82
2021/03/23 01:47:14;;;;;;;4.68;2.10;;;6.60;90.90;;;;;;5053249;28;20045;-82
2021/03/23 01:49:46;;;;;;;5.47;2.33;;;6.60;90.90;;;;;;5052554;28;20128;-84
2021/03/23 01:52:17;;;;;;;5.53;2.17;;;6.50;91.20;;;;;;5052860;28;20079;-82
2021/03/23 01:54:59;;;;;;;5.47;1.95;;;6.50;90.80;;;;;;5053153;28;20128;-83
2021/03/23 01:57:26;;;;;;;3.97;1.73;;;6.50;90.80;;;;;;5059794;28;20535;-82
2021/03/23 01:59:55;;;;;;;4.55;1.92;;;6.50;90.80;;;;;;5072241;28;20492;-82
2021/03/23 02:02:25;;;;;;;7.57;3.25;;;6.50;90.80;;;;;;5072657;28;20538;-82
2021/03/23 02:04:50;;;;;;;5.55;2.00;;;6.50;90.70;;;;;;5067505;28;20135;-82
2021/03/23 02:07:23;;;;;;;5.25;2.38;;;6.50;90.60;;;;;;5067165;28;20185;-82
2021/03/23 02:09:56;;;;;;;5.00;2.17;;;6.50;90.70;;;;;;5072790;28;20132;-82
2021/03/23 02:12:28;;;;;;;5.07;2.38;;;6.50;90.80;;;;;;5051257;28;20086;-83
2021/03/23 02:14:54;;;;;;;5.28;2.53;;;6.50;90.80;;;;;;5058865;28;20053;-82
2021/03/23 02:17:32;;;;;;;5.40;2.60;;;6.50;90.70;;;;;;5070372;28;20325;-81
2021/03/23 02:20:22;;;;;;;6.85;2.95;;;6.40;91.20;;;;;;5072840;28;20147;-82
2021/03/23 02:22:50;;;;;;;6.97;2.80;;;6.40;91.00;;;;;;5072846;28;20105;-81
2021/03/23 02:25:25;;;;;;;6.68;3.20;;;6.40;91.00;;;;;;5071642;28;20488;-82
2021/03/23 02:27:52;;;;;;;6.30;2.80;;;6.40;91.00;;;;;;5072842;28;20045;-81
2021/03/23 02:30:41;;;;;;;6.18;3.10;;;6.40;91.00;;;;;;5072690;28;20058;-82
2021/03/23 02:33:08;;;;;;;6.13;3.05;;;6.40;91.10;;;;;;5070896;28;20041;-82
2021/03/23 02:35:34;;;;;;;6.35;3.10;;;6.30;91.10;;;;;;5072625;28;20044;-81
2021/03/23 02:38:01;;;;;;;7.65;3.20;;;6.30;91.20;;;;;;5072481;28;20098;-82
2021/03/23 02:40:28;;;;;;;7.78;3.70;;;6.20;91.50;;;;;;5068572;28;20060;-82
2021/03/23 02:42:56;;;;;;;7.75;3.40;;;6.30;91.10;;;;;;5052829;28;20052;-81
2021/03/23 02:45:23;;;;;;;7.43;3.70;;;6.20;91.20;;;;;;5051420;28;20049;-81
2021/03/23 02:47:49;;;;;;;7.28;3.70;;;6.20;91.30;;;;;;5052789;28;20052;-82
2021/03/23 02:50:16;;;;;;;6.32;3.45;;;6.20;91.20;;;;;;5052196;28;20072;-82
2021/03/23 02:53:01;;;;;;;6.85;3.90;;;6.20;91.20;;;;;;5051818;28;20045;-82
2021/03/23 02:55:32;;;;;;;7.97;4.13;;;6.10;91.30;;;;;;5052051;28;20060;-81
2021/03/23 02:58:24;;;;;;;7.38;3.65;;;6.10;91.40;;;;;;4968338;28;20049;-82
2021/03/23 03:01:06;;;;;;;6.90;3.95;;;6.10;91.40;;;;;;5058522;28;20435;-82
2021/03/23 03:03:45;;;;;;;6.97;3.90;;;6.10;91.40;;;;;;5072468;28;20047;-82
2021/03/23 03:06:12;;;;;;;8.10;3.90;;;6.00;91.40;;;;;;5072040;28;20059;-83
2021/03/23 03:08:40;;;;;;;6.63;3.55;;;6.00;91.40;;;;;;5072272;28;20563;-81
2021/03/23 03:11:09;;;;;;;7.97;4.07;;;6.00;91.30;;;;;;5064549;28;20443;-82
2021/03/23 03:13:46;;;;;;;7.90;3.67;;;6.00;91.40;;;;;;5055682;28;20822;-81
2021/03/23 03:16:19;;;;;;;8.02;3.45;;;5.90;91.40;;;;;;5055985;28;20048;-81
2021/03/23 03:18:48;;;;;;;7.35;3.60;;;5.90;91.30;;;;;;5055967;28;20072;-82
2021/03/23 03:21:14;;;;;;;6.93;3.70;;;5.90;91.30;;;;;;5055405;28;20052;-81
2021/03/23 03:23:39;;;;;;;7.57;3.80;;;5.80;91.30;;;;;;5056481;28;20048;-81
2021/03/23 03:26:05;;;;;;;8.57;3.80;;;5.80;91.30;;;;;;5055946;28;20049;-82
2021/03/23 03:28:32;;;;;;;6.05;3.65;;;5.80;91.30;;;;;;5055524;28;20095;-81
2021/03/23 03:30:58;;;;;;;6.55;3.63;;;5.70;91.30;;;;;;5056098;28;20051;-81
2021/03/23 03:33:25;;;;;;;9.18;3.85;;;5.70;91.20;;;;;;5055964;28;20045;-81
2021/03/23 03:35:52;;;;;;;7.25;4.25;;;5.70;91.20;;;;;;5055485;28;20073;-81
2021/03/23 03:38:21;;;;;;;8.38;3.70;;;5.70;91.10;;;;;;5055422;28;20092;-82
2021/03/23 03:40:52;;;;;;;7.68;3.45;;;5.70;91.00;;;;;;5056708;28;20041;-82
2021/03/23 03:43:21;;;;;;;10.65;4.20;;;5.60;91.00;;;;;;5071473;28;20048;-82
2021/03/23 03:45:46;;;;;;;8.23;4.40;;;5.60;91.10;;;;;;5075758;28;20127;-82
2021/03/23 03:48:12;;;;;;;7.70;4.60;;;5.60;91.20;;;;;;5075438;28;20079;-82
2021/03/23 03:50:46;;;;;;;8.52;4.45;;;5.60;91.20;;;;;;5073754;28;20094;-82
2021/03/23 03:53:14;;;;;;;7.38;4.28;;;5.60;91.20;;;;;;5075127;28;20147;-81
2021/03/23 03:55:44;;;;;;;8.05;4.40;;;5.60;91.10;;;;;;5074885;28;20112;-82
2021/03/23 03:58:11;;;;;;;8.43;4.53;;;5.60;91.50;;;;;;5075187;28;20427;-82
2021/03/23 04:00:37;;;;;;;9.65;5.15;;;5.50;91.30;;;;;;5067764;28;20536;-81
2021/03/23 04:03:06;;;;;;;8.55;4.72;;;5.50;91.40;;;;;;5070551;28;20128;-82
2021/03/23 04:05:38;;;;;;;11.73;6.75;;;5.60;91.30;;;;;;5075551;28;20411;-81
2021/03/23 04:08:05;;;;;;;11.85;5.70;;;5.50;91.20;;;;;;5075122;28;20471;-82
2021/03/23 04:10:31;;;;;;;14.55;7.35;;;5.50;91.20;;;;;;5069231;28;20069;-82
2021/03/23 04:12:57;;;;;;;11.23;7.05;;;5.50;91.20;;;;;;5055288;28;20072;-82
2021/03/23 04:15:38;;;;;;;11.63;6.07;;;5.50;91.10;;;;;;5055220;28;20077;-82
2021/03/23 04:18:06;;;;;;;11.02;6.15;;;5.50;91.30;;;;;;5054074;28;20151;-82
2021/03/23 04:20:32;;;;;;;9.20;5.22;;;5.50;91.20;;;;;;5055903;28;20080;-82
2021/03/23 04:22:58;;;;;;;10.88;6.32;;;5.50;91.20;;;;;;5054288;28;20401;-82
2021/03/23 04:25:27;;;;;;;10.15;5.57;;;5.50;91.30;;;;;;5054425;28;20049;-82
2021/03/23 04:27:54;;;;;;;12.13;6.28;;;5.50;91.30;;;;;;5054824;28;20041;-82
2021/03/23 04:30:21;;;;;;;11.52;5.53;;;5.50;91.30;;;;;;5054611;28;20048;-82
2021/03/23 04:32:47;;;;;;;10.55;6.28;;;5.50;91.40;;;;;;5058931;28;20040;-81
2021/03/23 04:35:32;;;;;;;11.18;6.40;;;5.50;91.40;;;;;;5056205;28;20099;-82
2021/03/23 04:37:58;;;;;;;11.25;6.50;;;5.50;91.50;;;;;;5057051;28;20070;-82
2021/03/23 04:40:25;;;;;;;11.75;7.18;;;5.50;91.50;;;;;;5065070;28;20053;-82
2021/03/23 04:42:51;;;;;;;12.45;6.85;;;5.40;91.40;;;;;;5074597;28;20048;-82
2021/03/23 04:45:18;;;;;;;13.98;7.65;;;5.50;91.40;;;;;;5073707;28;20420;-82
2021/03/23 04:47:47;;;;;;;11.05;6.55;;;5.50;91.40;;;;;;5074902;28;20048;-81
2021/03/23 04:50:16;;;;;;;13.60;7.20;;;5.40;91.40;;;;;;5074545;28;20071;-82
2021/03/23 04:52:41;;;;;;;10.60;7.18;;;5.50;91.50;;;;;;5074061;28;20049;-82
2021/03/23 04:55:07;;;;;;;14.00;7.03;;;5.40;91.40;;;;;;5074518;28;20135;-82
2021/03/23 04:57:33;;;;;;;14.80;7.18;;;5.50;91.40;;;;;;5056100;28;20095;-80
2021/03/23 04:59:59;;;;;;;13.23;7.35;;;5.40;91.30;;;;;;5061586;28;20048;-81
2021/03/23 05:02:27;;;;;;;14.00;8.23;;;5.40;91.20;;;;;;5073784;28;20079;-82
2021/03/23 05:04:53;;;;;;;13.18;7.97;;;5.40;91.20;;;;;;5064861;28;20492;-82
2021/03/23 05:07:18;;;;;;;13.30;7.90;;;5.50;91.30;;;;;;5056340;28;20123;-82
2021/03/23 05:09:44;;;;;;;11.05;6.82;;;5.50;91.20;;;;;;5054664;28;20074;-82
2021/03/23 05:12:10;;;;;;;12.98;8.00;;;5.40;91.10;;;;;;5053809;28;20136;-82
2021/03/23 05:14:39;;;;;;;11.65;7.05;;;5.40;91.00;;;;;;5059501;28;20049;-82
2021/03/23 05:17:05;;;;;;;13.38;7.57;;;5.40;91.10;;;;;;5072552;28;20044;-82
2021/03/23 05:19:31;;;;;;;15.85;7.93;;;5.40;91.10;;;;;;5072792;28;20124;-82
2021/03/23 05:21:57;;;;;;;13.30;8.05;;;5.50;91.10;;;;;;5057814;28;20544;-82
2021/03/23 05:24:34;;;;;;;15.45;8.30;;;5.50;91.10;;;;;;5066109;28;20408;-82
2021/03/23 05:27:00;;;;;;;12.52;7.50;;;5.50;91.10;;;;;;5073081;28;20090;-82
2021/03/23 05:29:26;;;;;;;12.73;7.75;;;5.50;91.40;;;;;;5073972;28;20074;-82
2021/03/23 05:31:51;;;;;;;13.40;8.07;;;5.50;91.10;;;;;;5059822;28;20061;-82
2021/03/23 05:34:17;;;;;;;12.52;7.60;;;5.50;91.00;;;;;;5053313;28;20542;-82
2021/03/23 05:36:52;;;;;;;14.80;8.02;;;5.50;91.10;;;;;;5059669;28;20044;-83
2021/03/23 05:39:27;;;;;;;13.82;8.40;;;5.50;91.00;;;;;;5059729;28;20086;-82
2021/03/23 05:42:09;;;;;;;15.85;8.20;;;5.50;91.00;;;;;;5052792;28;20544;-82
2021/03/23 05:45:01;;;;;;;14.57;8.50;;;5.50;91.00;;;;;;5063536;28;20130;-81
2021/03/23 05:47:55;;;;;;;17.85;9.23;;;5.50;91.00;;;;;;5057963;28;20503;-82
2021/03/23 05:50:29;;;;;;;13.32;7.75;;;5.50;91.00;;;;;;5051838;28;20098;-82
2021/03/23 05:53:22;;;;;;;18.02;9.00;;;5.50;90.90;;;;;;5055743;28;20056;-82
2021/03/23 05:55:50;;;;;;;18.23;9.32;;;5.50;90.80;;;;;;5054918;28;20048;-82
2021/03/23 05:59:09;;;;;;;16.85;9.48;;;5.50;90.80;;;;;;5058157;28;20064;-83
2021/03/23 06:01:50;;;;;;;13.77;7.90;;;5.50;90.80;;;;;;5042997;28;20052;-83
2021/03/23 06:04:50;;;;;;;18.08;9.05;;;5.50;90.90;;;;;;5052362;28;20053;-83
2021/03/23 06:08:12;;;;;;;17.05;8.93;;;5.50;90.80;;;;;;5000375;28;20072;-83
2021/03/23 06:10:38;;;;;;;17.65;8.90;;;5.50;90.70;;;;;;4975080;28;20050;-84
2021/03/23 06:13:31;;;;;;;18.63;9.85;;;5.50;90.80;;;;;;5037981;28;20049;-85
2021/03/23 06:16:18;;;;;;;24.20;9.48;;;5.50;90.80;;;;;;5048341;28;20049;-82
2021/03/23 06:19:25;;;;;;;17.92;9.60;;;5.50;90.80;;;;;;5062569;28;20040;-82
2021/03/23 06:22:19;;;;;;;15.63;9.13;;;5.50;90.80;;;;;;5051846;28;20139;-82
2021/03/23 06:25:03;;;;;;;26.70;10.90;;;5.50;90.80;;;;;;5054576;28;20095;-82
2021/03/23 06:27:55;;;;;;;19.52;10.32;;;5.50;90.80;;;;;;5049926;28;20048;-83
2021/03/23 06:30:56;;;;;;;18.02;9.90;;;5.50;90.80;;;;;;5067020;28;20488;-85
2021/03/23 06:33:26;;;;;;;16.67;9.27;;;5.50;90.80;;;;;;5035382;28;20056;-83
2021/03/23 06:36:12;;;;;;;19.05;10.00;;;5.60;90.80;;;;;;5050334;28;20048;-86
2021/03/23 06:38:46;;;;;;;20.38;9.93;;;5.60;90.80;;;;;;5049157;28;20057;-84
2021/03/23 06:41:20;;;;;;;16.45;9.40;;;5.60;90.80;;;;;;5040450;28;20107;-85
2021/03/23 06:44:43;;;;;;;21.40;10.27;;;5.60;90.80;;;;;;5054640;28;20508;-84
2021/03/23 06:47:32;;;;;;;17.38;10.13;;;5.60;90.80;;;;;;5024620;28;20045;-84
2021/03/23 06:50:22;;;;;;;17.45;10.02;;;5.60;90.90;;;;;;5063516;28;20045;-84
2021/03/23 06:53:09;;;;;;;17.55;10.30;;;5.60;90.90;;;;;;5055562;28;20073;-84
2021/03/23 06:55:49;;;;;;;17.60;9.60;;;5.60;90.90;;;;;;5048010;28;20094;-86
2021/03/23 07:01:49;;;;;;;22.70;10.98;;;5.60;91.00;;;;;;5035847;28;20049;-86
2021/03/23 07:04:35;;;;;;;23.40;11.05;;;5.60;90.90;;;;;;5040766;28;20049;-84
2021/03/23 07:10:51;;;;;;;18.08;10.35;;;5.70;90.90;;;;;;5054760;28;20493;-83
2021/03/23 07:13:30;;;;;;;20.75;10.52;;;5.70;90.90;;;;;;5059477;28;20049;-83
2021/03/23 07:16:10;;;;;;;21.92;11.70;;;5.80;91.00;;;;;;5068744;28;20088;-83
2021/03/23 07:18:46;;;;;;;25.27;11.90;;;5.70;90.90;;;;;;5066414;28;20044;-84
2021/03/23 07:21:21;;;;;;;20.73;12.10;;;5.80;91.00;;;;;;5069243;28;20041;-85
2021/03/23 07:23:47;;;;;;;28.13;12.98;;;5.80;90.90;;;;;;5066682;28;20485;-84
2021/03/23 07:26:28;;;;;;;23.45;12.82;;;5.80;90.90;;;;;;5061135;28;20055;-85
2021/03/23 07:29:13;;;;;;;22.63;11.50;;;5.80;90.90;;;;;;5062226;28;20072;-85
2021/03/23 07:31:45;;;;;;;25.45;12.95;;;5.80;90.80;;;;;;5061083;28;20075;-85
2021/03/23 07:34:30;;;;;;;26.65;13.43;;;5.90;90.90;;;;;;5070579;28;20567;-86
2021/03/23 07:37:14;;;;;;;27.10;12.27;;;5.90;90.90;;;;;;5063026;28;20125;-86
2021/03/23 07:39:43;;;;;;;18.85;11.75;;;5.90;90.90;;;;;;5062388;28;20049;-85
2021/03/23 07:42:30;;;;;;;24.45;13.10;;;5.90;90.90;;;;;;5070387;28;20048;-85
2021/03/23 07:45:37;;;;;;;30.58;15.48;;;6.00;90.90;;;;;;5072165;28;20056;-85
2021/03/23 07:48:11;;;;;;;29.25;16.08;;;6.00;90.90;;;;;;5063398;28;20044;-85
2021/03/23 07:50:43;;;;;;;29.52;16.02;;;6.00;91.00;;;;;;5070977;28;20488;-86
2021/03/23 07:53:26;;;;;;;35.00;16.77;;;6.10;91.00;;;;;;5071454;28;20052;-86
2021/03/23 07:55:57;;;;;;;29.52;16.85;;;6.10;91.00;;;;;;5062220;28;20127;-81
2021/03/23 07:58:36;;;;;;;30.73;16.67;;;6.20;91.00;;;;;;5059597;28;20056;-87
2021/03/23 08:01:25;;;;;;;29.13;17.20;;;6.20;90.90;;;;;;5073030;28;20048;-84
2021/03/23 08:04:09;;;;;;;28.67;17.60;;;6.30;90.90;;;;;;5068361;28;20037;-84
2021/03/23 08:06:50;;;;;;;31.35;16.52;;;6.30;90.90;;;;;;5065161;28;20079;-86
2021/03/23 08:09:53;;;;;;;34.17;17.40;;;6.40;90.80;;;;;;5073765;28;20567;-87
2021/03/23 08:12:45;;;;;;;36.97;19.33;;;6.40;90.80;;;;;;5078258;28;20425;-85
2021/03/23 08:15:25;;;;;;;31.65;18.75;;;6.50;90.80;;;;;;5077143;28;20060;-85
2021/03/23 08:18:39;;;;;;;36.15;19.58;;;6.60;90.80;;;;;;5068622;28;20037;-86
2021/03/23 08:21:14;;;;;;;38.25;21.33;;;6.60;90.80;;;;;;5078367;28;20086;-87
2021/03/23 08:24:04;;;;;;;35.60;21.67;;;6.70;90.80;;;;;;5087168;28;20062;-86
2021/03/23 08:26:41;;;;;;;36.05;20.17;;;6.80;90.90;;;;;;5071510;28;20056;-86
2021/03/23 08:29:13;;;;;;;37.92;22.70;;;6.90;90.90;;;;;;5064741;28;20045;-87
2021/03/23 08:32:02;;;;;;;42.08;24.42;;;7.00;90.90;;;;;;5088510;28;20052;-82
2021/03/23 08:34:52;;;;;;;43.58;26.50;;;7.00;90.80;;;;;;5062691;28;20052;-86
2021/03/23 08:37:37;;;;;;;48.03;26.42;;;7.10;90.70;;;;;;5084492;28;20650;-82
2021/03/23 08:40:14;;;;;;;37.90;24.05;;;7.20;90.60;;;;;;5068858;28;20052;-87
2021/03/23 08:42:45;;;;;;;45.97;25.20;;;7.20;90.50;;;;;;5073755;28;20475;-86
2021/03/23 08:45:32;;;;;;;40.45;24.88;;;7.30;90.40;;;;;;5066250;28;20057;-84
2021/03/23 08:48:14;;;;;;;47.03;25.75;;;7.30;90.40;;;;;;5086255;28;20048;-85
2021/03/23 08:50:43;;;;;;;41.70;25.27;;;7.30;90.40;;;;;;5066316;28;20056;-84
2021/03/23 08:53:34;;;;;;;39.45;23.38;;;7.40;90.40;;;;;;5064070;28;20041;-84
2021/03/23 08:56:01;;;;;;;38.47;25.08;;;7.50;90.40;;;;;;5066235;28;20059;-84
2021/03/23 08:58:46;;;;;;;41.50;25.35;;;7.50;90.30;;;;;;5076050;28;20079;-83
2021/03/23 09:01:28;;;;;;;43.30;26.63;;;7.60;90.20;;;;;;5065315;28;20048;-84
2021/03/23 09:04:08;;;;;;;43.42;27.55;;;7.60;90.10;;;;;;5085909;28;20076;-84
2021/03/23 09:06:53;;;;;;;43.20;27.77;;;7.60;90.10;;;;;;5086791;28;20135;-84
2021/03/23 09:09:26;;;;;;;47.33;28.42;;;7.60;90.00;;;;;;5070423;28;20048;-84
2021/03/23 09:11:52;;;;;;;46.37;29.27;;;7.70;89.90;;;;;;5054544;28;20077;-85
2021/03/23 09:14:21;;;;;;;48.33;29.88;;;7.70;89.70;;;;;;5072544;28;20350;-84
2021/03/23 09:16:52;;;;;;;49.28;30.95;;;7.70;89.70;;;;;;5078748;28;20507;-85
2021/03/23 09:19:39;;;;;;;50.72;31.30;;;7.70;89.60;;;;;;5084170;28;20583;-85
2021/03/23 09:22:07;;;;;;;53.17;30.10;;;7.80;89.60;;;;;;5084241;28;20083;-84
2021/03/23 09:24:36;;;;;;;50.65;31.65;;;7.80;89.60;;;;;;5069633;28;20124;-86
2021/03/23 09:27:09;;;;;;;45.63;30.73;;;7.80;89.50;;;;;;5068833;28;20044;-83
2021/03/23 09:29:39;;;;;;;48.22;29.58;;;7.90;89.20;;;;;;5062894;28;20058;-85
2021/03/23 09:32:10;;;;;;;48.05;30.77;;;7.90;89.10;;;;;;5071632;28;20427;-85
2021/03/23 09:35:01;;;;;;;48.00;30.65;;;7.90;88.90;;;;;;5075954;28;20048;-85
2021/03/23 09:37:35;;;;;;;43.10;28.75;;;8.00;89.00;;;;;;5073146;28;20048;-86
2021/03/23 09:40:21;;;;;;;42.65;27.98;;;8.00;88.70;;;;;;5069054;28;20056;-85
2021/03/23 09:43:19;;;;;;;44.65;28.25;;;8.10;88.30;;;;;;5070400;28;20051;-84
2021/03/23 09:45:48;;;;;;;41.80;28.42;;;8.20;88.40;;;;;;5060362;28;20056;-84
2021/03/23 09:48:14;;;;;;;39.95;28.23;;;8.20;88.00;;;;;;5061601;28;20040;-85
2021/03/23 09:51:10;;;;;;;43.55;28.75;;;8.30;88.00;;;;;;5066344;28;20052;-85
2021/03/23 09:53:42;;;;;;;41.38;28.95;;;8.30;87.50;;;;;;5065659;28;20043;-84
2021/03/23 09:56:20;;;;;;;39.13;27.95;;;8.40;87.40;;;;;;5064918;28;20057;-84
2021/03/23 09:58:46;;;;;;;42.42;28.70;;;8.40;87.50;;;;;;5067011;28;20043;-85
2021/03/23 10:01:16;;;;;;;42.15;29.10;;;8.40;86.60;;;;;;5065541;28;20560;-84
2021/03/23 10:03:44;;;;;;;39.35;27.13;;;8.40;86.40;;;;;;5074448;28;20054;-85
2021/03/23 10:06:20;;;;;;;41.65;27.65;;;8.50;86.20;;;;;;5072830;28;20109;-82
2021/03/23 10:08:55;;;;;;;40.67;27.50;;;8.50;85.70;;;;;;5076889;28;20067;-83
2021/03/23 10:11:22;;;;;;;37.50;26.65;;;8.50;85.80;;;;;;5075667;28;20139;-83
2021/03/23 10:13:56;;;;;;;41.17;28.95;;;8.50;85.60;;;;;;5077673;28;20048;-85
2021/03/23 10:16:34;;;;;;;41.38;28.90;;;8.50;85.40;;;;;;5077580;28;20056;-85
2021/03/23 10:19:06;;;;;;;44.55;29.08;;;8.60;85.60;;;;;;5068398;28;20056;-84
2021/03/23 10:21:34;;;;;;;43.42;28.23;;;8.60;85.60;;;;;;5066779;28;20063;-84
2021/03/23 10:24:04;;;;;;;38.38;26.58;;;8.60;85.60;;;;;;5074622;28;20053;-85
2021/03/23 10:26:37;;;;;;;36.22;26.00;;;8.70;85.40;;;;;;5069678;28;20503;-84
2021/03/23 10:29:24;;;;;;;38.45;26.52;;;8.70;85.20;;;;;;5073403;28;20075;-85
2021/03/23 10:31:52;;;;;;;38.90;28.08;;;8.70;85.10;;;;;;5073602;28;20051;-87
2021/03/23 10:34:26;;;;;;;40.47;27.58;;;8.70;85.00;;;;;;5068211;28;20049;-85
2021/03/23 10:36:56;;;;;;;39.25;26.25;;;8.80;84.90;;;;;;5063817;28;20048;-86
2021/03/23 10:39:47;;;;;;;37.20;26.52;;;8.80;84.80;;;;;;5061558;28;20048;-84
2021/03/23 10:42:32;;;;;;;76.85;41.35;;;8.90;84.70;;;;;;5063970;28;20044;-87
2021/03/23 10:45:25;;;;;;;41.35;27.80;;;8.90;84.30;;;;;;5060911;28;20135;-88
2021/03/23 10:48:21;;;;;;;;;;;9.00;84.20;;;;;;5059888;28;20059;-87
2021/03/23 10:51:05;;;;;;;39.08;25.42;;;8.90;84.10;;;;;;5049416;28;20035;-87
2021/03/23 10:53:31;;;;;;;34.55;23.70;;;9.00;83.90;;;;;;5077613;28;20056;-87
2021/03/23 10:55:57;;;;;;;36.90;25.63;;;9.00;84.00;;;;;;5073909;28;20056;-86
2021/03/23 10:58:30;;;;;;;40.00;24.73;;;9.10;83.60;;;;;;5068629;28;20044;-86
2021/03/23 11:01:19;;;;;;;41.95;27.30;;;9.10;83.70;;;;;;5068414;28;20457;-86
2021/03/23 11:03:47;;;;;;;38.40;25.35;;;9.10;84.00;;;;;;5058310;28;20140;-85
2021/03/23 11:06:31;;;;;;;38.53;28.77;;;9.20;84.00;;;;;;5061669;28;20044;-85
2021/03/23 11:08:57;;;;;;;37.03;26.30;;;9.30;84.40;;;;;;5062361;28;20048;-86
2021/03/23 11:11:23;;;;;;;35.60;25.40;;;9.30;84.40;;;;;;5088177;28;20514;-87
2021/03/23 11:13:49;;;;;;;39.90;25.10;;;9.30;83.80;;;;;;5070650;28;20045;-87
2021/03/23 11:16:17;;;;;;;50.10;30.17;;;9.40;83.60;;;;;;5066204;28;20057;-86
2021/03/23 11:18:45;;;;;;;34.50;25.75;;;9.40;83.20;;;;;;5065395;28;20056;-86
2021/03/23 11:21:15;;;;;;;35.72;25.20;;;9.50;83.30;;;;;;5068220;28;20044;-87
2021/03/23 11:23:45;;;;;;;39.85;25.70;;;9.50;83.10;;;;;;5078140;28;20044;-86
2021/03/23 11:26:20;;;;;;;37.10;26.52;;;9.60;82.80;;;;;;5080916;28;20056;-86
2021/03/23 11:28:46;;;;;;;38.42;26.95;;;9.60;82.60;;;;;;5087136;28;20055;-87
2021/03/23 11:31:16;;;;;;;40.85;27.30;;;9.60;82.40;;;;;;5073255;28;20373;-87
2021/03/23 11:33:45;;;;;;;41.28;27.48;;;9.60;82.40;;;;;;5065493;28;20053;-87
2021/03/23 11:36:11;;;;;;;44.65;28.83;;;9.70;82.40;;;;;;5085828;28;20076;-86
2021/03/23 11:38:37;;;;;;;39.08;27.35;;;9.70;82.30;;;;;;5069953;28;20552;-86
2021/03/23 11:41:13;;;;;;;39.35;27.80;;;9.70;82.30;;;;;;5073402;28;20135;-86
2021/03/23 11:43:51;;;;;;;39.83;26.75;;;9.70;82.00;;;;;;5076391;28;20057;-86
2021/03/23 11:46:28;;;;;;;39.33;29.00;;;9.70;81.60;;;;;;5073466;28;20044;-86
2021/03/23 11:49:07;;;;;;;41.75;29.02;;;9.70;82.10;;;;;;5073630;28;20408;-86
2021/03/23 11:51:36;;;;;;;43.15;29.98;;;9.80;81.90;;;;;;5076114;28;20044;-85
2021/03/23 11:54:02;;;;;;;41.03;30.02;;;9.80;81.20;;;;;;5081083;28;20051;-84
2021/03/23 11:56:28;;;;;;;43.25;30.27;;;9.80;81.10;;;;;;5081160;28;20056;-85
2021/03/23 11:58:56;;;;;;;42.67;30.83;;;9.80;81.10;;;;;;5071467;28;20453;-87
2021/03/23 12:01:24;;;;;;;44.95;30.40;;;9.80;81.20;;;;;;5066270;28;20053;-86
2021/03/23 12:03:51;;;;;;;44.35;30.42;;;9.80;81.10;;;;;;5078256;28;20047;-86
2021/03/23 12:06:28;;;;;;;47.45;32.47;;;9.80;81.30;;;;;;5060176;28;20516;-87
2021/03/23 12:08:59;;;;;;;48.88;32.92;;;9.80;81.50;;;;;;5077771;28;20040;-88
2021/03/23 12:11:39;;;;;;;46.33;32.35;;;9.80;81.50;;;;;;5062262;28;20487;-87
2021/03/23 12:14:36;;;;;;;42.78;31.15;;;9.80;81.40;;;;;;5077817;28;20445;-84
2021/03/23 12:17:09;;;;;;;46.90;32.38;;;9.80;82.10;;;;;;5067990;28;20049;-86
2021/03/23 12:19:40;;;;;;;44.00;31.73;;;9.80;81.80;;;;;;5066085;28;20051;-87
2021/03/23 12:22:09;;;;;;;42.92;30.45;;;9.90;81.60;;;;;;5082362;28;20053;-86
2021/03/23 12:24:37;;;;;;;43.38;30.30;;;9.90;81.50;;;;;;5088784;28;20135;-86
2021/03/23 12:27:04;;;;;;;47.45;32.35;;;10.00;81.20;;;;;;5076114;28;20127;-86
2021/03/23 12:29:30;;;;;;;44.08;31.92;;;10.00;81.20;;;;;;5065936;28;20052;-85
2021/03/23 12:31:58;;;;;;;46.70;31.55;;;10.00;80.90;;;;;;5056427;28;20052;-86
2021/03/23 12:34:28;;;;;;;41.95;30.02;;;10.00;80.60;;;;;;5076488;28;20408;-87
2021/03/23 12:36:54;;;;;;;43.70;31.02;;;10.10;80.40;;;;;;5090183;28;20047;-86
2021/03/23 12:39:22;;;;;;;43.97;30.77;;;10.10;80.20;;;;;;5077737;28;20078;-87
2021/03/23 12:41:56;;;;;;;41.33;30.55;;;10.10;80.10;;;;;;5087879;28;20080;-87
2021/03/23 12:44:22;;;;;;;45.80;29.63;;;10.10;80.30;;;;;;5072937;28;20048;-86
2021/03/23 12:46:48;;;;;;;42.25;30.33;;;10.20;80.10;;;;;;5085049;28;20413;-86
2021/03/23 12:49:17;;;;;;;41.38;29.50;;;10.20;80.00;;;;;;5080173;28;20417;-91
2021/03/23 12:51:48;;;;;;;41.90;29.55;;;10.30;79.50;;;;;;5076605;28;20056;-84
2021/03/23 12:54:21;;;;;;;42.65;30.45;;;10.30;79.30;;;;;;5059093;28;20075;-87
2021/03/23 12:56:48;;;;;;;41.67;30.48;;;10.40;79.30;;;;;;5087452;28;20391;-89
2021/03/23 12:59:30;;;;;;;43.20;30.40;;;10.40;79.40;;;;;;5064860;28;20102;-88
2021/03/23 13:01:56;;;;;;;40.35;30.17;;;10.40;79.00;;;;;;5069585;28;20041;-89
2021/03/23 13:04:24;;;;;;;47.13;31.05;;;10.40;79.00;;;;;;5068512;28;20820;-87
2021/03/23 13:06:51;;;;;;;41.67;31.35;;;10.50;79.20;;;;;;5085499;28;20484;-87
2021/03/23 13:09:17;;;;;;;43.13;30.67;;;10.50;78.70;;;;;;5061981;28;20048;-87
2021/03/23 13:11:48;;;;;;;46.90;33.78;;;10.50;78.40;;;;;;5070131;28;20194;-87
2021/03/23 13:14:26;;;;;;;45.88;31.73;;;10.50;79.00;;;;;;5083786;28;20385;-87
2021/03/23 13:16:52;;;;;;;45.28;32.17;;;10.50;78.10;;;;;;5080098;28;20045;-87
2021/03/23 13:19:26;;;;;;;41.25;31.10;;;10.50;78.70;;;;;;5060066;28;20040;-87
2021/03/23 13:21:58;;;;;;;42.30;31.00;;;10.50;78.50;;;;;;5065838;28;20143;-87
2021/03/23 13:24:50;;;;;;;41.72;30.33;;;10.50;78.40;;;;;;5059538;28;20448;-87
2021/03/23 13:27:28;;;;;;;40.60;30.02;;;10.60;78.50;;;;;;5061117;28;20137;-86